Wilton, New Hampshire
Current Conditions -  °F | °C
As of 8:52 AM on Thursday 29 Jan 2015 (Local Time) from KAFN Reporting Station
Clear Clear  
Wind Chill: -20°   Ceiling: Unl
Heat Index: -20°   Visibility: 10mi
Dew Point: -21°   Wind: 3mph
Humidity: 91%   Direction: 180°S
Pressure: 30.25"   Gusts: NA
Location:  42.85°N, 71.74°W
Report Text: KAFN 291352Z AUTO 18003KT 10SM CLR M20/M21 A3025 RMK AO2 SLP278 T12001211
Loading
Personal Weather Stations






























Interactive Weather Map New forecast layout! Learn more

10-Day Weather Forecast

Advertisements
Track Severe Weather on mobile